Time;durP1;ratioP1;P1;durP2;ratioP2;P2;SDS_P1;SDS_P2;PMS_P1;PMS_P2;Temp;Humidity;BMP_temperature;BMP_pressure;BME280_temperature;BME280_humidity;BME280_pressure;Samples;Min_cycle;Max_cycle;Signal;HPM_P1;HPM_P2
2023/07/08 00:02:34;;;;;;;4.93;2.35;;;;;;;17.52;45.75;100043.38;10384073;28;20045;-60
2023/07/08 00:07:39;;;;;;;7.22;3.00;;;;;;;17.48;45.84;100050.75;10383162;28;20049;-60
2023/07/08 00:12:42;;;;;;;7.10;2.95;;;;;;;17.01;46.39;100046.00;10382790;28;20045;-60
2023/07/08 00:17:44;;;;;;;5.25;2.33;;;;;;;16.87;46.58;100052.44;10380737;28;20053;-60
2023/07/08 00:22:49;;;;;;;6.88;2.55;;;;;;;17.06;46.39;100049.09;10384596;28;20053;-60
2023/07/08 00:27:51;;;;;;;7.38;2.70;;;;;;;17.17;46.45;100041.09;10384040;28;20443;-60
2023/07/08 00:32:55;;;;;;;5.90;2.50;;;;;;;17.18;46.44;100048.03;10395453;28;20075;-60
2023/07/08 00:38:12;;;;;;;5.80;2.40;;;;;;;16.70;47.15;100038.97;10383427;28;20065;-60
2023/07/08 00:43:14;;;;;;;8.75;2.90;;;;;;;16.83;47.32;100044.91;10382871;28;20047;-60
2023/07/08 00:48:25;;;;;;;5.10;2.63;;;;;;;16.76;48.52;100038.47;10382135;28;20049;-60
2023/07/08 00:53:36;;;;;;;7.43;2.70;;;;;;;16.49;48.75;100041.56;10381593;28;20051;-60
2023/07/08 00:58:43;;;;;;;7.60;2.78;;;;;;;16.09;49.23;100041.34;10382617;28;20080;-60
2023/07/08 01:04:01;;;;;;;5.80;2.35;;;;;;;16.38;49.75;100046.88;10382502;28;20540;-60
2023/07/08 01:09:04;;;;;;;6.78;2.92;;;;;;;16.56;48.17;100042.75;10380910;28;20084;-60
2023/07/08 01:14:09;;;;;;;4.30;2.20;;;;;;;16.28;48.81;100045.97;10382587;28;20371;-60
2023/07/08 01:19:17;;;;;;;7.35;3.05;;;;;;;15.70;50.25;100041.88;10382069;28;20228;-60
2023/07/08 01:24:19;;;;;;;5.80;2.58;;;;;;;15.91;49.44;100040.19;10383452;28;20045;-60
2023/07/08 01:29:21;;;;;;;5.00;2.60;;;;;;;16.16;49.24;100039.84;10385343;28;20151;-60
2023/07/08 01:34:23;;;;;;;8.23;3.45;;;;;;;16.19;49.59;100039.63;10389298;28;20045;-60
2023/07/08 01:39:27;;;;;;;6.30;2.70;;;;;;;16.12;49.63;100025.25;10389511;28;20051;-60
2023/07/08 01:44:32;;;;;;;6.07;2.80;;;;;;;15.63;50.40;100031.94;10392179;28;20151;-60
2023/07/08 01:49:37;;;;;;;6.68;2.72;;;;;;;15.63;50.93;100024.88;10387553;28;20053;-60
2023/07/08 01:54:39;;;;;;;5.78;2.55;;;;;;;15.86;50.23;100034.41;10390520;28;20085;-60
2023/07/08 01:59:41;;;;;;;6.10;2.38;;;;;;;15.81;50.39;100028.69;10390491;28;20060;-60
2023/07/08 02:04:43;;;;;;;6.38;2.33;;;;;;;15.59;50.61;100018.13;10391179;28;20049;-60
2023/07/08 02:09:47;;;;;;;5.82;2.60;;;;;;;15.69;50.75;100019.13;10394527;28;20572;-60
2023/07/08 02:14:49;;;;;;;6.43;2.63;;;;;;;15.99;50.40;100021.94;10395261;28;20160;-60
2023/07/08 02:19:51;;;;;;;6.38;2.70;;;;;;;16.00;50.42;100012.19;10394683;28;20152;-60
2023/07/08 02:24:54;;;;;;;5.47;2.42;;;;;;;16.00;50.59;100005.13;10380932;28;20409;-60
2023/07/08 02:29:56;;;;;;;5.05;2.30;;;;;;;15.97;50.50;100001.91;10394276;28;20057;-60
2023/07/08 02:34:58;;;;;;;6.70;3.00;;;;;;;15.89;50.82;100005.16;10395503;28;20164;-60
2023/07/08 02:40:01;;;;;;;7.18;3.33;;;;;;;16.04;50.74;99997.81;10394771;28;20049;-60
2023/07/08 02:45:05;;;;;;;7.20;2.88;;;;;;;15.94;50.77;100000.34;10389975;28;20093;-60
2023/07/08 02:50:09;;;;;;;7.13;2.80;;;;;;;16.14;50.70;99996.13;10392359;28;20037;-60
2023/07/08 02:55:11;;;;;;;6.82;2.72;;;;;;;16.32;50.44;100007.81;10393996;28;20085;-60
2023/07/08 03:00:14;;;;;;;5.63;2.58;;;;;;;16.34;50.57;100012.94;10391392;28;20077;-60
2023/07/08 03:05:16;;;;;;;6.63;2.58;;;;;;;16.41;50.58;100025.50;10384321;28;20606;-60
2023/07/08 03:10:18;;;;;;;7.47;3.42;;;;;;;16.35;50.20;100020.72;10381389;28;20433;-60
2023/07/08 03:15:20;;;;;;;5.80;2.65;;;;;;;16.22;50.77;100023.53;10385219;28;20140;-60
2023/07/08 03:20:22;;;;;;;5.25;2.35;;;;;;;16.21;50.79;100027.16;10368678;28;20132;-60
2023/07/08 03:25:25;;;;;;;5.85;2.60;;;;;;;16.21;50.79;100027.16;10383868;28;20076;-60
2023/07/08 03:30:27;;;;;;;6.68;2.85;;;;;;;16.20;50.68;100038.66;10386385;28;20128;-60
2023/07/08 03:35:29;;;;;;;6.40;2.65;;;;;;;16.24;50.77;100036.63;10399440;28;20132;-60
2023/07/08 03:40:31;;;;;;;5.85;2.60;;;;;;;16.28;50.57;100039.84;10383883;28;20057;-60
2023/07/08 03:45:33;;;;;;;5.85;2.38;;;;;;;16.40;50.38;100049.41;10344669;28;20049;-60
2023/07/08 03:50:36;;;;;;;5.40;2.38;;;;;;;16.36;50.68;100040.91;10366581;28;20056;-60
2023/07/08 03:55:39;;;;;;;5.40;2.30;;;;;;;15.78;51.37;100042.09;10381740;28;20073;-60
2023/07/08 04:00:41;;;;;;;6.10;2.80;;;;;;;15.82;51.64;100046.16;10381063;28;20073;-60
2023/07/08 04:05:43;;;;;;;6.43;2.47;;;;;;;15.70;51.59;100041.88;10378092;28;20453;-60
2023/07/08 04:10:45;;;;;;;4.70;2.30;;;;;;;15.89;51.51;100046.53;10381730;28;20143;-60
2023/07/08 04:15:54;;;;;;;5.72;2.28;;;;;;;16.12;51.60;100046.34;10379201;28;20136;-60
2023/07/08 04:20:57;;;;;;;5.28;2.80;;;;;;;16.62;50.45;100054.59;10382473;28;20052;-60
2023/07/08 04:26:02;;;;;;;6.43;2.75;;;;;;;17.09;49.87;100046.19;10375377;28;20038;-60
2023/07/08 04:31:04;;;;;;;9.00;3.05;;;;;;;17.60;49.14;100036.47;10382309;28;20452;-61
2023/07/08 04:36:12;;;;;;;5.43;2.42;;;;;;;17.84;49.07;100039.59;10376808;28;20107;-60
2023/07/08 04:41:14;;;;;;;3.92;2.17;;;;;;;19.28;46.89;100039.63;10380890;28;20045;-60
2023/07/08 04:46:29;;;;;;;4.82;2.65;;;;;;;21.85;42.48;100031.44;10375650;28;20042;-60
2023/07/08 04:51:32;;;;;;;5.13;2.03;;;;;;;21.99;42.39;100037.94;10380588;28;20060;-61
2023/07/08 04:56:46;;;;;;;5.60;2.47;;;;;;;20.81;42.89;100044.06;10375077;28;20037;-61
2023/07/08 05:01:48;;;;;;;5.82;2.45;;;;;;;19.76;44.73;100050.06;10377503;28;20553;-60
2023/07/08 05:06:51;;;;;;;8.27;2.47;;;;;;;19.20;45.59;100043.03;10385364;28;20445;-60
2023/07/08 05:11:54;;;;;;;8.43;2.13;;;;;;;18.78;46.12;100040.84;10387730;28;20057;-60
2023/07/08 05:16:57;;;;;;;5.50;2.42;;;;;;;18.88;46.36;100033.72;10379839;28;20072;-60
2023/07/08 05:21:59;;;;;;;5.70;2.58;;;;;;;21.21;44.09;100027.59;10387649;28;20146;-60
2023/07/08 05:27:01;;;;;;;5.57;2.38;;;;;;;25.30;38.16;100025.19;10385229;28;20570;-60
2023/07/08 05:32:04;;;;;;;4.40;2.15;;;;;;;23.21;39.78;100045.09;10387525;28;20789;-61
2023/07/08 05:37:06;;;;;;;7.53;2.63;;;;;;;22.36;40.93;100040.25;10383317;28;20049;-61
2023/07/08 05:42:08;;;;;;;4.47;2.30;;;;;;;21.80;41.66;100048.88;10385358;28;20501;-60
2023/07/08 05:47:10;;;;;;;4.32;2.20;;;;;;;21.32;42.29;100056.59;10381420;28;20052;-60
2023/07/08 05:52:12;;;;;;;5.93;2.40;;;;;;;21.24;42.24;100062.69;10382418;28;20509;-60
2023/07/08 05:57:14;;;;;;;5.00;2.30;;;;;;;21.12;42.24;100058.63;10381009;28;20418;-60
2023/07/08 06:02:19;;;;;;;6.65;2.60;;;;;;;20.87;43.04;100078.03;10386502;28;20045;-60
2023/07/08 06:07:21;;;;;;;5.65;2.60;;;;;;;20.45;43.45;100069.81;10384727;28;20049;-60
2023/07/08 06:12:23;;;;;;;4.65;2.20;;;;;;;20.44;43.69;100084.06;10385963;28;20088;-60
2023/07/08 06:17:26;;;;;;;7.18;2.45;;;;;;;20.40;44.13;100077.38;10381484;28;20599;-60
2023/07/08 06:22:27;;;;;;;6.18;2.33;;;;;;;20.13;44.48;100072.94;10386065;28;20605;-60
2023/07/08 06:27:48;;;;;;;4.43;2.05;;;;;;;19.92;44.47;100082.16;10385804;28;20049;-61
2023/07/08 06:32:50;;;;;;;4.65;2.08;;;;;;;19.48;45.84;100084.53;10381775;28;20179;-60
2023/07/08 06:37:53;;;;;;;4.65;2.35;;;;;;;19.30;46.03;100082.75;10383892;28;20127;-61
2023/07/08 06:42:56;;;;;;;4.85;1.98;;;;;;;19.28;46.08;100055.56;10382432;28;20492;-61
2023/07/08 06:48:13;;;;;;;4.28;1.98;;;;;;;19.71;45.92;100078.84;10379630;28;20053;-60
2023/07/08 06:53:15;;;;;;;3.97;2.10;;;;;;;20.07;45.71;100056.78;10399303;28;20150;-61
2023/07/08 06:58:17;;;;;;;5.13;2.17;;;;;;;20.51;44.82;100074.53;10368997;28;20069;-60
2023/07/08 07:03:19;;;;;;;3.75;2.10;;;;;;;20.86;44.28;100077.22;10386259;28;20051;-60
2023/07/08 07:08:21;;;;;;;4.60;2.10;;;;;;;21.45;43.75;100067.66;10379501;28;20041;-60
2023/07/08 07:13:23;;;;;;;4.95;2.13;;;;;;;21.08;43.58;100051.94;10383272;28;20416;-61
2023/07/08 07:18:26;;;;;;;4.15;1.90;;;;;;;21.26;43.39;100059.84;10381830;28;20061;-60
2023/07/08 07:23:28;;;;;;;5.47;2.30;;;;;;;21.28;43.25;100056.06;10380166;28;20088;-60
2023/07/08 07:28:30;;;;;;;3.33;1.85;;;;;;;21.48;43.15;100054.88;10378638;28;20045;-60
2023/07/08 07:33:32;;;;;;;3.90;1.90;;;;;;;21.78;42.48;100048.22;10383760;28;20142;-60
2023/07/08 07:38:34;;;;;;;5.47;2.10;;;;;;;22.48;41.38;100049.59;10378768;28;20420;-60
2023/07/08 07:43:36;;;;;;;5.00;1.90;;;;;;;23.17;40.71;100059.78;10385161;28;20130;-61
2023/07/08 07:48:39;;;;;;;4.53;1.98;;;;;;;23.24;39.46;100060.78;10377700;28;20041;-61
2023/07/08 07:53:41;;;;;;;5.80;2.33;;;;;;;24.54;38.09;100059.25;10378033;28;20046;-61
2023/07/08 07:58:43;;;;;;;3.92;1.70;;;;;;;24.69;37.58;100041.44;10378559;28;20045;-60
2023/07/08 08:03:45;;;;;;;3.83;1.90;;;;;;;26.22;36.54;100046.00;10398206;28;20128;-60
2023/07/08 08:08:49;;;;;;;4.05;1.92;;;;;;;27.95;33.85;100035.44;10379651;28;20100;-60
2023/07/08 08:13:52;;;;;;;4.45;1.80;;;;;;;28.16;33.51;100037.97;10378031;28;20049;-60
2023/07/08 08:18:54;;;;;;;4.03;1.90;;;;;;;28.90;32.16;100039.63;10395293;28;20059;-61
2023/07/08 08:23:58;;;;;;;3.67;2.00;;;;;;;29.38;31.69;100028.59;10377818;28;20520;-61
2023/07/08 08:29:00;;;;;;;4.88;1.70;;;;;;;30.45;30.04;100025.09;10375695;28;20136;-61
2023/07/08 08:34:02;;;;;;;3.92;1.90;;;;;;;31.09;29.13;100030.19;10378002;28;20099;-60
2023/07/08 08:39:04;;;;;;;4.47;1.77;;;;;;;31.17;28.75;100015.59;10387244;28;20042;-61
2023/07/08 08:44:12;;;;;;;3.53;1.75;;;;;;;31.33;27.33;100015.03;10388752;28;20448;-61
2023/07/08 08:49:20;;;;;;;4.80;2.15;;;;;;;29.89;27.64;100021.38;10385126;28;20512;-61
2023/07/08 08:54:22;;;;;;;4.50;2.00;;;;;;;30.05;28.12;100007.44;10378681;28;20145;-61
2023/07/08 08:59:54;;;;;;;4.00;1.60;;;;;;;30.37;27.19;99997.50;10361500;28;20049;-61
2023/07/08 09:05:10;;;;;;;3.28;1.80;;;;;;;31.08;26.57;100014.22;10386481;28;20051;-61
2023/07/08 09:10:29;;;;;;;6.93;2.00;;;;;;;31.39;25.77;100031.16;10383221;28;20552;-61
2023/07/08 09:15:32;;;;;;;;;;;;;;;31.14;25.89;100019.56;10371106;28;20543;-61
2023/07/08 09:20:36;;;;;;;3.75;1.73;;;;;;;31.28;25.90;100014.84;10387355;28;19960;-61
2023/07/08 09:26:09;;;;;;;4.18;1.75;;;;;;;30.90;25.58;99996.09;10385682;28;20068;-61
2023/07/08 09:31:24;;;;;;;4.22;1.73;;;;;;;30.26;26.33;99995.50;10384500;28;20409;-61
2023/07/08 09:36:26;;;;;;;4.57;1.83;;;;;;;29.89;27.66;99991.72;10384553;28;20050;-61
2023/07/08 09:41:37;;;;;;;3.35;1.60;;;;;;;30.79;26.74;99994.09;10379260;28;20041;-60
2023/07/08 09:46:40;;;;;;;3.50;1.60;;;;;;;32.10;26.08;99996.25;10382520;28;20045;-61
2023/07/08 09:51:43;;;;;;;3.47;1.83;;;;;;;31.70;25.66;99972.63;10385010;28;20115;-60
2023/07/08 09:56:57;;;;;;;3.47;1.60;;;;;;;32.10;24.90;99952.09;10381824;28;20049;-60
2023/07/08 10:02:20;;;;;;;3.72;1.85;;;;;;;32.92;23.77;99937.66;10386557;28;20443;-61
2023/07/08 10:07:22;;;;;;;3.80;1.63;;;;;;;32.74;22.75;99935.88;10382783;28;20045;-61
2023/07/08 10:12:25;;;;;;;2.92;1.50;;;;;;;33.33;22.36;99942.91;10386708;28;20123;-60
2023/07/08 10:17:29;;;;;;;4.85;2.00;;;;;;;33.42;22.16;99960.47;10380991;28;20080;-61
2023/07/08 10:22:43;;;;;;;4.70;2.22;;;;;;;33.76;21.29;99965.00;10384721;28;20588;-61
2023/07/08 10:27:58;;;;;;;3.33;1.55;;;;;;;34.16;20.94;99962.28;10377667;28;20058;-62
2023/07/08 10:33:40;;;;;;;3.38;1.70;;;;;;;33.90;20.02;99960.09;10383495;28;20052;-61
2023/07/08 10:39:13;;;;;;;3.47;1.75;;;;;;;33.65;20.31;99965.88;10379812;28;20060;-61
2023/07/08 10:44:40;;;;;;;4.93;1.80;;;;;;;33.27;20.26;99941.16;10381646;28;21153;-61
2023/07/08 10:50:08;;;;;;;4.25;1.83;;;;;;;33.02;21.08;99949.56;10381599;28;20955;-61
2023/07/08 10:55:10;;;;;;;4.20;1.70;;;;;;;33.20;21.86;99956.75;10359227;28;20041;-61
2023/07/08 11:00:44;;;;;;;4.22;1.88;;;;;;;32.91;21.34;99942.25;10380290;28;20136;-61
2023/07/08 11:06:13;;;;;;;3.95;1.75;;;;;;;32.76;21.67;99941.88;10377893;28;20576;-61
2023/07/08 11:11:34;;;;;;;3.80;1.60;;;;;;;32.68;21.74;99944.09;10361317;28;20053;-61
2023/07/08 11:16:45;;;;;;;4.30;1.80;;;;;;;32.65;21.18;99936.47;10374759;28;20387;-61
2023/07/08 11:21:52;;;;;;;5.93;2.53;;;;;;;32.77;21.05;99942.72;10381317;28;20509;-60
2023/07/08 11:26:59;;;;;;;3.13;1.75;;;;;;;32.38;21.91;99941.47;10376189;28;20049;-61
2023/07/08 11:32:03;;;;;;;5.60;1.90;;;;;;;32.24;22.21;99950.84;10381055;28;20053;-60
2023/07/08 11:37:08;;;;;;;3.17;1.67;;;;;;;32.45;22.05;99939.50;10376981;28;20054;-61
2023/07/08 11:42:34;;;;;;;5.53;1.73;;;;;;;32.72;21.55;99948.00;10377267;28;20080;-60
2023/07/08 11:47:46;;;;;;;3.97;1.95;;;;;;;32.40;21.88;99938.53;10379918;28;20056;-61
2023/07/08 11:52:59;;;;;;;3.35;1.60;;;;;;;32.73;22.15;99939.66;10365846;28;20516;-60
2023/07/08 11:58:07;;;;;;;4.28;1.80;;;;;;;32.61;21.28;99929.88;10375381;28;20418;-60
2023/07/08 12:03:21;;;;;;;4.87;2.20;;;;;;;32.57;20.95;99932.25;10381731;28;20052;-61
2023/07/08 12:08:37;;;;;;;5.47;1.83;;;;;;;32.92;21.88;99924.91;10377661;28;20068;-61
2023/07/08 12:13:39;;;;;;;3.60;1.67;;;;;;;33.02;21.81;99927.09;10380527;28;20145;-61
2023/07/08 12:18:45;;;;;;;6.03;1.85;;;;;;;32.95;21.31;99927.16;10377393;28;20053;-61
2023/07/08 12:23:48;;;;;;;3.55;1.70;;;;;;;32.95;21.69;99927.16;10380286;28;20136;-60
2023/07/08 12:28:50;;;;;;;4.18;1.90;;;;;;;33.00;21.26;99932.72;10378019;28;20621;-60
2023/07/08 12:33:52;;;;;;;4.57;2.00;;;;;;;33.00;21.67;99923.78;10381442;28;20057;-61
2023/07/08 12:38:57;;;;;;;3.17;1.70;;;;;;;32.90;21.55;99921.63;10378283;28;20041;-61
2023/07/08 12:44:02;;;;;;;4.05;1.77;;;;;;;33.21;21.82;99920.44;10377925;28;20061;-61
2023/07/08 12:49:04;;;;;;;4.50;1.88;;;;;;;33.11;21.55;99917.50;10376572;28;20128;-61
2023/07/08 12:54:09;;;;;;;4.20;2.00;;;;;;;33.20;21.80;99917.97;10379295;28;20049;-61
2023/07/08 12:59:20;;;;;;;4.35;1.83;;;;;;;33.34;21.63;99913.94;10372995;28;21107;-61
2023/07/08 13:04:23;;;;;;;3.53;1.70;;;;;;;33.49;22.29;99906.16;10370469;28;20061;-61
2023/07/08 13:09:28;;;;;;;4.78;1.60;;;;;;;33.48;21.94;99915.34;10373392;28;20048;-60
2023/07/08 13:14:30;;;;;;;4.00;1.80;;;;;;;33.63;21.89;99915.66;10377431;28;20377;-61
2023/07/08 13:19:32;;;;;;;4.60;1.65;;;;;;;33.74;21.58;99910.16;10375596;28;20132;-60
2023/07/08 13:24:35;;;;;;;4.53;1.70;;;;;;;33.66;21.81;99907.00;10381474;28;20056;-61
2023/07/08 13:29:36;;;;;;;4.63;1.83;;;;;;;33.61;22.05;99906.94;10382083;28;20405;-61
2023/07/08 13:34:40;;;;;;;4.05;1.80;;;;;;;33.55;21.85;99905.97;10384680;28;20128;-61
2023/07/08 13:39:46;;;;;;;3.53;1.70;;;;;;;33.30;21.37;99897.31;10382421;28;20071;-61
2023/07/08 13:44:51;;;;;;;5.22;2.08;;;;;;;33.63;21.62;99902.91;10386930;28;20490;-60
2023/07/08 13:50:04;;;;;;;4.05;1.60;;;;;;;33.53;21.28;99899.97;10379812;28;20049;-60
2023/07/08 13:55:18;;;;;;;3.25;1.73;;;;;;;33.52;21.33;99892.09;10381240;28;20045;-61
2023/07/08 14:00:23;;;;;;;3.70;1.70;;;;;;;33.48;21.28;99904.47;10383789;28;20049;-61
2023/07/08 14:05:27;;;;;;;3.30;1.60;;;;;;;33.63;21.28;99892.06;10382841;28;20088;-61
2023/07/08 14:10:29;;;;;;;5.45;1.90;;;;;;;33.54;21.33;99898.94;10382245;28;20051;-61
2023/07/08 14:15:32;;;;;;;3.30;1.77;;;;;;;33.50;21.31;99897.75;10384030;28;20053;-61
2023/07/08 14:20:34;;;;;;;4.35;2.03;;;;;;;33.45;21.42;99900.31;10398435;28;20481;-61
2023/07/08 14:25:36;;;;;;;7.25;1.88;;;;;;;33.58;21.60;99893.84;10379099;28;20115;-61
2023/07/08 14:30:45;;;;;;;3.47;1.60;;;;;;;33.64;20.59;99896.41;10385615;28;20037;-61
2023/07/08 14:35:47;;;;;;;4.05;1.75;;;;;;;33.54;21.23;99893.50;10377787;28;20050;-61
2023/07/08 14:40:50;;;;;;;3.67;1.40;;;;;;;33.52;21.17;99886.66;10384246;28;20041;-61
2023/07/08 14:45:55;;;;;;;2.97;1.40;;;;;;;33.56;21.02;99874.25;10382614;28;20045;-61
2023/07/08 14:50:57;;;;;;;5.25;1.67;;;;;;;33.53;20.97;99874.75;10377614;28;20405;-60
2023/07/08 14:56:08;;;;;;;3.50;1.75;;;;;;;33.45;20.71;99875.91;10378410;28;20049;-60
2023/07/08 15:01:24;;;;;;;3.70;1.83;;;;;;;33.43;20.97;99880.75;10374109;28;20049;-60
2023/07/08 15:06:27;;;;;;;4.25;1.63;;;;;;;33.44;21.41;99876.16;10375152;28;20737;-60
2023/07/08 15:11:31;;;;;;;3.83;1.52;;;;;;;33.40;21.35;99885.84;10378464;28;20048;-60
2023/07/08 15:16:33;;;;;;;3.65;1.60;;;;;;;33.11;21.67;99882.28;10389045;28;20541;-60
2023/07/08 15:21:35;;;;;;;4.82;1.60;;;;;;;33.00;21.78;99883.13;10397215;28;20314;-60
2023/07/08 15:26:39;;;;;;;5.05;1.80;;;;;;;33.19;21.21;99890.03;10373927;28;20449;-60
2023/07/08 15:31:43;;;;;;;3.80;1.45;;;;;;;33.30;21.56;99881.06;10378108;28;20050;-60
2023/07/08 15:36:46;;;;;;;4.10;2.00;;;;;;;33.30;21.33;99875.63;10378709;28;20498;-60
2023/07/08 15:41:49;;;;;;;3.97;1.63;;;;;;;33.26;21.34;99869.06;10378698;28;20131;-60
2023/07/08 15:46:51;;;;;;;4.70;1.50;;;;;;;33.22;21.59;99877.91;10374973;28;20057;-60
2023/07/08 15:51:53;;;;;;;3.33;1.80;;;;;;;33.40;21.76;99878.56;10378863;28;20052;-60
2023/07/08 15:56:55;;;;;;;6.20;1.77;;;;;;;33.47;21.46;99879.25;10376659;28;20049;-60
2023/07/08 16:02:12;;;;;;;2.95;1.52;;;;;;;33.48;21.34;99866.53;10376794;28;20052;-60
2023/07/08 16:07:14;;;;;;;5.20;1.65;;;;;;;33.40;21.76;99865.00;10362553;28;20136;-60
2023/07/08 16:12:21;;;;;;;3.55;1.52;;;;;;;33.46;21.30;99861.34;10379162;28;20192;-59
2023/07/08 16:17:24;;;;;;;4.70;1.77;;;;;;;33.32;21.59;99861.84;10379034;28;20466;-60
2023/07/08 16:22:26;;;;;;;3.45;1.48;;;;;;;33.24;21.73;99865.75;10380744;28;20484;-59
2023/07/08 16:27:30;;;;;;;3.08;1.48;;;;;;;33.39;21.91;99867.94;10378720;28;20382;-59
2023/07/08 16:32:39;;;;;;;3.90;1.70;;;;;;;33.43;21.62;99867.22;10380981;28;20042;-60
2023/07/08 16:37:45;;;;;;;3.33;1.80;;;;;;;33.31;21.71;99876.47;10378478;28;20065;-60
2023/07/08 16:42:49;;;;;;;4.47;1.60;;;;;;;32.91;21.94;99871.81;10380529;28;20564;-60
2023/07/08 16:47:52;;;;;;;3.75;1.80;;;;;;;32.52;22.31;99877.13;10377378;28;20466;-60
2023/07/08 16:52:55;;;;;;;3.10;1.60;;;;;;;32.31;22.77;99874.97;10376077;28;20468;-60
2023/07/08 16:57:57;;;;;;;3.63;1.38;;;;;;;32.15;23.11;99873.75;10371486;28;20406;-61
2023/07/08 17:02:59;;;;;;;4.57;1.77;;;;;;;32.34;22.79;99866.38;10382472;28;20505;-61
2023/07/08 17:08:02;;;;;;;4.10;1.65;;;;;;;32.74;22.83;99864.63;10378170;28;20049;-61
2023/07/08 17:13:04;;;;;;;3.78;1.80;;;;;;;33.06;22.55;99868.63;10387587;28;20195;-61
2023/07/08 17:18:14;;;;;;;3.67;1.77;;;;;;;33.15;22.46;99866.34;10386953;28;20165;-61
2023/07/08 17:23:19;;;;;;;3.55;1.48;;;;;;;33.12;22.47;99859.53;10369557;28;20096;-61
2023/07/08 17:28:21;;;;;;;3.90;1.77;;;;;;;32.97;22.37;99872.72;10380691;28;20076;-61
2023/07/08 17:33:27;;;;;;;3.30;1.50;;;;;;;32.70;22.74;99874.28;10381628;28;20052;-61
2023/07/08 17:38:43;;;;;;;3.90;1.70;;;;;;;32.46;23.30;99869.91;10381155;28;20045;-61
2023/07/08 17:43:46;;;;;;;3.13;1.67;;;;;;;32.18;23.60;99863.31;10380036;28;20773;-61
2023/07/08 17:48:50;;;;;;;3.53;1.55;;;;;;;32.18;23.78;99865.19;10380483;28;20049;-61
2023/07/08 17:53:53;;;;;;;5.68;1.83;;;;;;;32.20;24.32;99874.72;10382504;28;20041;-61
2023/07/08 17:58:55;;;;;;;2.78;1.45;;;;;;;32.05;24.57;99877.03;10380207;28;20045;-60
2023/07/08 18:03:57;;;;;;;4.90;1.80;;;;;;;31.71;25.05;99869.63;10373847;28;20049;-61
2023/07/08 18:08:59;;;;;;;3.30;1.42;;;;;;;31.38;25.59;99888.13;10371075;28;20054;-61
2023/07/08 18:14:08;;;;;;;2.85;1.23;;;;;;;30.98;25.73;99889.66;10380257;28;20049;-61
2023/07/08 18:19:10;;;;;;;3.15;1.50;;;;;;;30.68;26.10;99903.03;10377226;28;20061;-61
2023/07/08 18:24:16;;;;;;;2.65;1.50;;;;;;;30.32;26.66;99900.19;10378107;28;20545;-61
2023/07/08 18:29:20;;;;;;;3.10;1.45;;;;;;;30.06;27.07;99906.59;10379541;28;20140;-60
2023/07/08 18:34:24;;;;;;;3.92;1.92;;;;;;;29.89;27.23;99905.44;10383115;28;20068;-61
2023/07/08 18:39:26;;;;;;;3.70;2.30;;;;;;;29.75;27.64;99917.34;10378633;28;20072;-61
2023/07/08 18:44:31;;;;;;;4.10;2.47;;;;;;;29.67;28.09;99923.81;10386409;28;20050;-61
2023/07/08 18:49:34;;;;;;;4.05;2.50;;;;;;;29.60;27.97;99935.69;10375979;28;20124;-61
2023/07/08 18:54:36;;;;;;;3.70;2.05;;;;;;;29.48;28.19;99948.97;10379597;28;20049;-61
2023/07/08 18:59:39;;;;;;;4.45;1.65;;;;;;;29.46;28.23;99964.53;10357778;28;20060;-61
2023/07/08 19:04:41;;;;;;;3.35;1.60;;;;;;;29.16;29.02;99967.91;10383884;28;20140;-61
2023/07/08 19:09:43;;;;;;;4.50;1.60;;;;;;;28.67;29.84;99979.09;10373806;28;20045;-61
2023/07/08 19:14:45;;;;;;;2.90;1.60;;;;;;;28.32;30.28;99991.91;10388994;28;20387;-61
2023/07/08 19:19:47;;;;;;;5.68;1.60;;;;;;;28.10;30.95;99993.06;10376634;28;20067;-60
2023/07/08 19:24:51;;;;;;;5.03;1.48;;;;;;;28.10;30.98;100007.34;10379817;28;20049;-60
2023/07/08 19:29:53;;;;;;;4.85;1.83;;;;;;;28.08;31.03;100011.28;10383626;28;20623;-60
2023/07/08 19:34:55;;;;;;;3.38;1.48;;;;;;;28.10;31.28;100020.81;10384489;28;20078;-60
2023/07/08 19:39:57;;;;;;;4.63;1.70;;;;;;;28.12;31.32;100034.03;10381207;28;20041;-60
2023/07/08 19:44:59;;;;;;;4.75;1.85;;;;;;;27.79;31.93;100057.28;10381845;28;20111;-58
2023/07/08 19:50:01;;;;;;;3.72;1.70;;;;;;;27.81;32.07;100076.72;10375989;28;20533;-58
2023/07/08 19:55:04;;;;;;;5.10;1.77;;;;;;;27.59;32.25;100086.69;10385343;28;20164;-58
2023/07/08 20:00:15;;;;;;;4.13;1.52;;;;;;;27.56;32.75;100107.75;10385630;28;20502;-58
2023/07/08 20:05:19;;;;;;;7.38;2.08;;;;;;;27.73;32.26;100127.97;10386245;28;20060;-58
2023/07/08 20:10:21;;;;;;;5.78;2.45;;;;;;;27.82;32.42;100146.41;10385196;28;20038;-58
2023/07/08 20:15:27;;;;;;;2.90;1.58;;;;;;;27.76;37.93;100176.78;10372871;28;20041;-58
2023/07/08 20:20:30;;;;;;;8.00;2.38;;;;;;;26.93;38.85;100198.09;10371964;28;20055;-58
2023/07/08 20:25:32;;;;;;;3.30;1.77;;;;;;;24.73;43.03;100181.88;10383018;28;20092;-58
2023/07/08 20:30:34;;;;;;;3.83;1.70;;;;;;;22.85;49.22;100194.00;10382665;28;20054;-58
2023/07/08 20:35:36;;;;;;;3.60;1.80;;;;;;;22.88;50.25;100190.97;10398289;28;20568;-58
2023/07/08 20:40:39;;;;;;;3.65;1.98;;;;;;;22.82;50.07;100170.31;10395284;28;20042;-57
2023/07/08 20:45:44;;;;;;;6.47;2.13;;;;;;;22.60;51.40;100161.06;10393432;28;20694;-57
2023/07/08 20:50:46;;;;;;;5.60;2.15;;;;;;;22.75;52.64;100160.47;10393093;28;20049;-57
2023/07/08 20:55:50;;;;;;;5.47;1.90;;;;;;;22.82;53.62;100156.16;10391344;28;20103;-57
2023/07/08 21:00:52;;;;;;;4.13;2.05;;;;;;;22.84;54.15;100148.81;10393504;28;20140;-58
2023/07/08 21:05:55;;;;;;;3.35;1.92;;;;;;;22.81;54.83;100135.81;10394406;28;20064;-57
2023/07/08 21:10:57;;;;;;;5.35;1.85;;;;;;;22.71;55.25;100127.94;10391694;28;20049;-58
2023/07/08 21:15:59;;;;;;;4.03;1.90;;;;;;;22.67;55.30;100123.94;10395055;28;20057;-57
2023/07/08 21:21:02;;;;;;;5.63;1.92;;;;;;;22.57;55.66;100126.75;10390929;28;20049;-57
2023/07/08 21:26:27;;;;;;;3.85;1.95;;;;;;;22.44;58.79;100136.19;10393355;28;20068;-57
2023/07/08 21:31:30;;;;;;;4.80;2.05;;;;;;;22.25;56.71;100142.63;10393540;28;20053;-57
2023/07/08 21:36:34;;;;;;;3.42;1.83;;;;;;;22.18;56.82;100133.63;10388080;28;20394;-57
2023/07/08 21:41:36;;;;;;;4.03;1.83;;;;;;;22.12;56.83;100144.91;10394591;28;20814;-58
2023/07/08 21:46:38;;;;;;;4.53;1.80;;;;;;;22.03;57.17;100142.31;10384677;28;20051;-57
2023/07/08 21:51:40;;;;;;;6.78;3.40;;;;;;;21.94;57.43;100145.97;10385458;28;20049;-58
2023/07/08 21:56:42;;;;;;;4.90;2.67;;;;;;;21.86;57.59;100134.25;10385664;28;20112;-57
2023/07/08 22:01:45;;;;;;;5.75;2.63;;;;;;;21.79;57.76;100132.41;10385093;28;20042;-58
2023/07/08 22:06:47;;;;;;;3.97;1.92;;;;;;;21.69;58.20;100139.66;10383791;28;20413;-58
2023/07/08 22:11:49;;;;;;;3.58;1.80;;;;;;;21.72;57.86;100142.84;10387275;28;21809;-57
2023/07/08 22:16:51;;;;;;;5.25;3.15;;;;;;;21.66;58.06;100142.66;10383777;28;21131;-58
2023/07/08 22:22:11;;;;;;;7.97;2.90;;;;;;;21.70;57.72;100149.34;10386313;28;20123;-58
2023/07/08 22:27:13;;;;;;;5.15;1.92;;;;;;;21.66;57.82;100145.31;10386428;28;20088;-58
2023/07/08 22:32:15;;;;;;;3.78;2.10;;;;;;;21.61;58.15;100142.28;10386078;28;20049;-57
2023/07/08 22:37:17;;;;;;;4.43;2.15;;;;;;;21.52;58.23;100136.06;10377579;28;20042;-57
2023/07/08 22:42:19;;;;;;;8.52;4.57;;;;;;;21.38;58.91;100133.13;10382300;28;20599;-57
2023/07/08 22:47:23;;;;;;;4.85;2.35;;;;;;;21.24;58.71;100131.00;10377639;28;20065;-57
2023/07/08 22:52:29;;;;;;;4.63;2.65;;;;;;;21.08;59.47;100143.19;10388344;28;20057;-57
2023/07/08 22:57:32;;;;;;;4.32;2.20;;;;;;;21.15;59.14;100138.06;10363826;28;20041;-57
2023/07/08 23:02:34;;;;;;;5.22;2.15;;;;;;;21.03;59.40;100134.84;10366208;28;20124;-58
2023/07/08 23:07:36;;;;;;;4.60;2.20;;;;;;;21.02;59.48;100148.28;10367667;28;20049;-58
2023/07/08 23:12:39;;;;;;;5.05;2.40;;;;;;;20.93;59.56;100143.88;10368402;28;20049;-57
2023/07/08 23:17:43;;;;;;;4.13;2.00;;;;;;;20.92;59.75;100136.91;10370900;28;22027;-58
2023/07/08 23:22:46;;;;;;;6.03;2.30;;;;;;;20.90;59.50;100136.22;10370914;28;20045;-57
2023/07/08 23:27:48;;;;;;;5.00;2.60;;;;;;;20.84;59.25;100137.66;10374476;28;20612;-58
2023/07/08 23:32:50;;;;;;;4.43;2.10;;;;;;;20.85;59.22;100144.66;10370892;28;20491;-57